• Join FlightAware (Why Join?)
  • Login
  • US Flag 
04:21AM EDT


 

Airport Tracker/Info


-or-


 

Live Flight TrackerFlight Track Log ✈ ACA907 ✈ 23-Aug-2013 ✈ KMCO - CYYZ

Flight Track Log - Related Links

Times and Time Zones

All times are in EDT time to prevent confusion due to time zone crossing. See the ACA907 flight status page for this flight to view local times or setup timezone preferences in your user account.

Time Position Orientation Groundspeed Altitude Reporting Facility
EDT Latitude Longitude Course Direction KTS MPH feet Rate Location/Type
03:05PM 28.4167 -81.3167 North 174 200 900  Level Orlando TRACON
03:06PM 28.4000 -81.2667 111° Southeast 231 266 2,700 2,100 Climbing Orlando TRACON
03:07PM 28.4167 -81.1833 77° East 269 310 5,400 2,700 Climbing Orlando TRACON
03:08PM 28.5000 -81.1667 10° North 285 328 8,200 2,580 Climbing Orlando TRACON
03:09PM 29.0126 -81.3692 350° North  Level FlightAware Approximate
03:09PM 28.5833 -81.1500 10° North 303 349 10,600  Level Orlando TRACON
03:10PM 29.1328 -81.3833 North  Level FlightAware Approximate
03:11PM 28.7850 -81.1397 North 335 386 15,700  Level Jacksonville Center
03:12PM 28.8786 -81.1308 North 335 386 17,700 1,800 Climbing Jacksonville Center
03:13PM 28.9786 -81.1172 North 343 395 19,300 1,680 Climbing Jacksonville Center
03:14PM 29.0767 -81.1036 North 349 402 21,100 1,560 Climbing Jacksonville Center
03:15PM 29.1808 -81.0922 North 360 414 22,500 1,560 Climbing Jacksonville Center
03:16PM 29.2831 -81.0903 North 367 422 24,300 1,440 Climbing Jacksonville Center
03:17PM 29.3797 -81.1292 341° North 362 417 25,400 900 Climbing Jacksonville Center
03:18PM 29.4931 -81.1769 340° North 367 422 26,100 780 Climbing Jacksonville Center
03:19PM 29.6022 -81.2206 341° North 394 453 27,000 660 Climbing Jacksonville Center
03:20PM 29.7153 -81.2642 341° North 414 476 27,500 1,800 Climbing Jacksonville Center
03:21PM 29.8264 -81.2958 346° North 420 483 30,700 1,800 Climbing Jacksonville Center
03:22PM 29.9350 -81.2892 North 395 455 31,100 480 Climbing Jacksonville Center
03:23PM 30.0497 -81.2847 North 395 455 31,700 780 Climbing Jacksonville Center
03:24PM 30.1625 -81.2806 North 400 460 32,700 900 Climbing Jacksonville Center
03:25PM 30.2750 -81.2761 North 405 466 33,500 660 Climbing Jacksonville Center
03:26PM 30.3919 -81.2694 North 405 466 34,100 420 Climbing Jacksonville Center
03:27PM 30.5089 -81.2650 North 405 466 34,400 420 Climbing Jacksonville Center
03:28PM 30.6278 -81.2606 North 410 472 35,000 300 Climbing Jacksonville Center
03:29PM 30.7508 -81.2561 North 423 487 35,000  Level Jacksonville Center
03:30PM 30.8761 -81.2514 North 434 499 35,000  Level Jacksonville Center
03:31PM 31.0033 -81.2494 North 447 514 35,000  Level Jacksonville Center
03:32PM 31.1350 -81.2444 North 461 531 35,000  Level Jacksonville Center
03:33PM 31.2664 -81.2375 North 461 531 35,000  Level Jacksonville Center
03:34PM 31.3914 -81.2303 North 455 524 35,000  Level Jacksonville Center
03:35PM 31.5167 -81.2256 North 455 524 35,000  Level Jacksonville Center
03:36PM 31.6336 -81.2236 North 453 521 35,000  Level Jacksonville Center
03:37PM 31.7714 -81.2186 North 458 527 35,000  Level Jacksonville Center
03:38PM 31.9050 -81.2136 North 458 527 35,000  Level Jacksonville Center
03:39PM 32.0342 -81.2089 North 464 534 35,000  Level Jacksonville Center
03:40PM 32.1617 -81.2042 North 456 525 35,000  Level Jacksonville Center
03:41PM 32.2908 -81.1919 North 461 531 35,000  Level Jacksonville Center
03:42PM 32.4264 -81.1844 North 466 536 35,000  Level Jacksonville Center
03:43PM 32.5389 -81.1725 North 461 531 35,000  Level Jacksonville Center
03:44PM 32.6703 -81.1625 North 461 531 35,000 -60 Level Jacksonville Center
03:45PM 32.8100 -81.1500 North 461 531 34,900  Descending Jacksonville Center
03:46PM 32.9392 -81.1378 North 461 531 35,000  Climbing Jacksonville Center
03:47PM 33.0658 -81.0881 18° North 461 531 34,900  Descending Jacksonville Center
03:48PM 33.1925 -81.0358 19° North 471 542 35,000  Climbing Jacksonville Center
03:49PM 33.2981 -80.9739 26° Northeast 471 542 34,900 -60 Descending Jacksonville Center
03:50PM 33.4136 -80.8894 31° Northeast 471 542 34,900  Level Jacksonville Center
03:51PM 33.5206 -80.7900 38° Northeast 482 555 35,000  Climbing Jacksonville Center
03:52PM 33.6314 -80.6900 37° Northeast 488 562 35,000  Level Jacksonville Center
03:53PM 33.7467 -80.6022 32° Northeast 493 567 35,000  Level Jacksonville Center
03:55PM 33.9797 -80.5944 North 442 509 35,000  Level Atlanta Center
03:56PM 34.1219 -80.6011 358° North 452 520 35,000  Level Atlanta Center
03:57PM 34.2492 -80.6061 358° North 457 526 35,000  Level Atlanta Center
03:58PM 34.3808 -80.6083 359° North 463 533 35,000  Level Atlanta Center
03:59PM 34.5061 -80.6106 359° North 458 527 35,000  Level Atlanta Center
04:00PM 34.6356 -80.6181 357° North 458 527 35,000  Level Atlanta Center
04:01PM 34.7631 -80.6228 358° North 458 527 35,000  Level Atlanta Center
04:02PM 34.8925 -80.6228 360° North 464 534 35,000  Level Atlanta Center
04:03PM 35.0158 -80.6303 357° North 458 527 35,000  Level Atlanta Center
04:04PM 35.1392 -80.6353 358° North 453 521 35,000  Level Atlanta Center
04:05PM 35.2664 -80.6403 358° North 453 521 35,000  Level Atlanta Center
04:06PM 35.3939 -80.6478 357° North 459 528 35,000  Level Atlanta Center
04:07PM 35.5067 -80.6483 360° North 459 528 35,000  Level Atlanta Center
04:08PM 35.6361 -80.6531 358° North 459 528 35,000  Level Atlanta Center
04:09PM 35.7636 -80.6606 357° North 459 528 35,000  Level Atlanta Center
04:10PM 35.8931 -80.6656 358° North 459 528 35,000  Level Atlanta Center
04:11PM 36.0203 -80.6706 358° North 459 528 35,000  Level Atlanta Center
04:12PM 36.1500 -80.6781 357° North 459 528 35,000  Level Atlanta Center
04:13PM 36.2814 -80.6828 358° North 459 528 35,000  Level Atlanta Center
04:14PM 36.4086 -80.6800 North 459 528 35,000  Level Atlanta Center
04:15PM 36.5392 -80.6514 10° North 459 528 35,000  Level Atlanta Center
04:17PM 36.7583 -80.6058 North 461 531 35,000  Level Washington Center
04:18PM 36.8889 -80.5781 10° North 467 537 35,000  Level Washington Center
04:19PM 37.0319 -80.5483 North 472 543 35,000  Level Washington Center
04:20PM 37.1603 -80.5228 North 472 543 35,000  Level Washington Center
04:21PM 37.2886 -80.4969 North 472 543 35,000  Level Washington Center
04:22PM 37.4211 -80.4692 North 472 543 35,000  Level Washington Center
04:23PM 37.5369 -80.4450 North 472 543 35,000  Level Washington Center
04:24PM 37.6653 -80.4164 10° North 472 543 35,000  Level Washington Center
04:25PM 37.7956 -80.3906 North 472 543 35,000  Level Washington Center
04:26PM 37.9242 -80.3619 10° North 472 543 35,000  Level Washington Center
04:27PM 38.0525 -80.3306 11° North 472 543 35,000  Level Washington Center
04:28PM 38.1936 -80.3000 10° North 467 537 35,000  Level Washington Center
04:29PM 38.3197 -80.2736 North 467 537 35,000  Level Washington Center
04:30PM 38.4481 -80.2444 10° North 467 537 35,000  Level Washington Center
04:31PM 38.5742 -80.2178 North 467 537 35,000  Level Washington Center
04:32PM 38.6878 -80.1903 11° North 467 537 35,000  Level Washington Center
04:33PM 38.8161 -80.1639 North 467 537 35,000  Level Washington Center
04:35PM 39.1364 -80.0853 11° North 466 536 35,000  Level Cleveland Center
04:36PM 39.2781 -80.0522 10° North 466 536 35,000  Level Cleveland Center
04:37PM 39.4031 -80.0217 11° North 466 536 35,000  Level Cleveland Center
04:38PM 39.5319 -79.9936 10° North 466 536 35,000  Level Cleveland Center
04:39PM 39.6569 -79.9628 11° North 466 536 35,000  Level Cleveland Center
04:40PM 39.7839 -79.9347 10° North 466 536 35,000  Level Cleveland Center
04:41PM 39.9089 -79.9039 11° North 466 536 35,000  Level Cleveland Center
04:42PM 40.0336 -79.8753 10° North 466 536 35,000  Level Cleveland Center
04:43PM 40.1606 -79.8469 10° North 466 536 35,000  Level Cleveland Center
04:44PM 40.2836 -79.8156 11° North 456 525 35,000  Level Cleveland Center
04:45PM 40.4042 -79.7869 10° North 446 513 35,000  Level Cleveland Center
04:46PM 40.5269 -79.7583 10° North 446 513 35,000  Level Cleveland Center
04:47PM 40.6519 -79.7292 10° North 446 513 35,000  Level Cleveland Center
04:48PM 40.7747 -79.7003 10° North 446 513 35,000 -300 Level Cleveland Center
04:49PM 40.8933 -79.6711 11° North 446 513 34,400 -540 Descending Cleveland Center
04:50PM 41.0181 -79.6419 10° North 446 513 34,000 -240 Descending Cleveland Center
04:51PM 41.1367 -79.6100 11° North 446 513 34,000  Level Cleveland Center
04:52PM 41.2614 -79.5806 10° North 446 513 34,000  Level Cleveland Center
04:53PM 41.3800 -79.5508 11° North 441 507 34,000  Level Cleveland Center
04:54PM 41.4861 -79.5269 10° North 441 507 34,000 -300 Level Cleveland Center
04:55PM 41.6067 -79.4944 11° North 441 507 33,400 -1,200 Descending Cleveland Center
04:56PM 41.7231 -79.4647 11° North 435 501 31,700 -1,620 Descending Cleveland Center
04:57PM 41.8439 -79.4347 10° North 435 501 30,200 -1,260 Descending Cleveland Center
04:58PM 41.9664 -79.4075 North 435 501 29,200 -1,020 Descending Cleveland Center
04:59PM 42.0911 -79.3744 11° North 440 506 28,200 -960 Descending Cleveland Center
05:00PM 42.2117 -79.3442 11° North 440 506 27,300 -960 Descending Cleveland Center
05:01PM 42.3303 -79.3136 11° North 445 512 26,300 -1,020 Descending Cleveland Center
05:02PM 42.4531 -79.2858 North 445 512 25,300 -1,020 Descending Cleveland Center
05:03PM 42.5758 -79.2806 North 445 512 24,300 -1,020 Descending Cleveland Center
05:04PM 42.6886 -79.2925 356° North 427 491 23,300 -4,200 Descending Cleveland Center
05:05PM 42.8158 -79.3067 355° North 422 486 16,000 -2,160 Descending Cleveland Center
05:07PM 42.9833 -79.2833 North 390 449 17,800 -240 Climbing Toronto Center
05:08PM 43.0833 -79.3167 346° North 380 437 15,400 -2,220 Descending Toronto Center
05:09PM 43.1833 -79.3167 360° North 360 414 13,400 -1,440 Descending Toronto Center
05:10PM 43.2667 -79.3333 352° North 330 380 12,600 -1,140 Descending Toronto Center
05:11PM 43.3500 -79.3500 352° North 290 334 11,200 -1,200 Descending Toronto Center
05:12PM 43.4167 -79.3833 340° North 270 311 10,300 -1,200 Descending Toronto Center
05:13PM 43.4833 -79.4333 331° Northwest 250 288 8,900 -1,200 Descending Toronto Center
05:14PM 43.5333 -79.4667 334° Northwest 250 288 8,000 -1,020 Descending Toronto Center
05:15PM 43.5667 -79.5333 305° West 240 276 6,900 -1,200 Descending Toronto Center
05:16PM 43.5333 -79.6167 241° Southwest 250 288 5,600 -1,260 Descending Toronto Center
05:17PM 43.4833 -79.6833 224° Southwest 250 288 4,400 -1,200 Descending Toronto Center
05:18PM 43.4667 -79.7500 251° West 230 265 3,200 -720 Descending Toronto Center
05:19PM 43.5000 -79.8000 313° West 200 230 3,000 -120 Descending Toronto Center
05:20PM 43.5500 -79.7500 36° Northeast 170 196 3,000 -300 Level Toronto Center
05:21PM 43.5833 -79.7000 47° Northeast 170 196 2,500 -660 Descending Toronto Center
05:22PM 43.6167 -79.6500 47° Northeast 170 196 1,700 -840 Descending Toronto Center
05:23PM 43.6333 -79.6333 36° Northeast 140 161 900 -840 Descending Toronto Center